Time;durP1;ratioP1;P1;durP2;ratioP2;P2;SDS_P1;SDS_P2;PMS_P1;PMS_P2;Temp;Humidity;BMP_temperature;BMP_pressure;BME280_temperature;BME280_humidity;BME280_pressure;Samples;Min_cycle;Max_cycle;Signal;HPM_P1;HPM_P2
2021/12/12 00:02:08;;;;;;;8.51;3.55;;;;;;;2.05;95.09;100158.28;1979799;81;20336;-76
2021/12/12 00:05:19;;;;;;;8.96;3.30;;;;;;;2.06;95.00;100157.94;1980802;81;21070;-76
2021/12/12 00:08:23;;;;;;;3.31;2.50;;;;;;;2.06;94.89;100156.34;1973802;81;20453;-76
2021/12/12 00:11:32;;;;;;;4.47;2.59;;;;;;;2.06;94.99;100155.00;1981910;81;20362;-76
2021/12/12 00:19:29;;;;;;;6.61;2.16;;;;;;;2.06;95.11;100151.34;1983988;71;21214;-76
2021/12/12 00:27:34;;;;;;;5.45;2.49;;;;;;;2.07;94.97;100149.84;1972250;71;20456;-76
2021/12/12 00:31:21;;;;;;;4.74;2.44;;;;;;;2.08;94.93;100151.63;1959334;82;20697;-76
2021/12/12 00:34:40;;;;;;;7.24;2.33;;;;;;;2.09;94.80;100155.13;2030645;71;20502;-76
2021/12/12 00:38:25;;;;;;;6.09;2.06;;;;;;;2.10;94.61;100159.28;1977865;82;20763;-77
2021/12/12 00:41:55;;;;;;;6.34;2.33;;;;;;;2.11;94.46;100165.94;1977479;82;20351;-76
2021/12/12 00:45:45;;;;;;;3.71;1.90;;;;;;;2.12;94.30;100166.97;1976702;82;20504;-76
2021/12/12 00:54:11;;;;;;;4.79;2.11;;;;;;;2.09;94.01;100160.91;1962542;82;21376;-76
2021/12/12 01:11:38;;;;;;;5.10;1.70;;;;;;;2.03;93.56;100156.06;1991885;71;21131;-76
2021/12/12 01:16:09;;;;;;;6.68;2.14;;;;;;;2.01;93.39;100158.06;1977372;82;20361;-76
2021/12/12 01:24:40;;;;;;;6.09;2.13;;;;;;;1.96;93.27;100157.56;1973533;82;20885;-76
2021/12/12 01:28:36;;;;;;;4.56;1.65;;;;;;;1.93;93.33;100160.78;1966595;82;20794;-76
2021/12/12 01:32:28;;;;;;;3.95;2.04;;;;;;;1.91;93.44;100166.38;1416127;79;51239594;-76
2021/12/12 01:40:23;;;;;;;3.86;1.81;;;;;;;1.87;93.60;100173.72;1974819;82;20327;-76
2021/12/12 01:43:51;;;;;;;4.01;1.85;;;;;;;1.85;93.73;100173.50;1974829;82;20421;-76
2021/12/12 01:47:14;;;;;;;7.31;1.86;;;;;;;1.84;93.88;100177.09;1974730;82;20805;-76
2021/12/12 01:50:28;;;;;;;3.79;1.58;;;;;;;1.82;93.97;100178.38;1976526;82;20890;-76
2021/12/12 01:53:59;;;;;;;6.55;2.10;;;;;;;1.81;93.98;100181.16;1976750;82;20401;-76
2021/12/12 01:57:47;;;;;;;6.11;1.81;;;;;;;1.79;93.97;100182.63;1971806;82;21125;-76
2021/12/12 02:00:59;;;;;;;3.51;1.76;;;;;;;1.77;93.88;100181.41;1975705;82;20874;-76
2021/12/12 02:04:32;;;;;;;3.19;1.55;;;;;;;1.74;94.03;100182.28;1973064;82;20350;-76
2021/12/12 02:07:57;;;;;;;5.22;1.89;;;;;;;1.70;94.06;100187.94;1975525;82;20342;-76
2021/12/12 02:11:19;;;;;;;6.49;1.77;;;;;;;1.66;94.38;100191.88;1977292;82;20517;-76
2021/12/12 02:14:28;;;;;;;2.69;1.30;;;;;;;1.63;94.41;100195.00;1963712;82;20360;-76
2021/12/12 02:17:42;;;;;;;2.16;1.74;;;;;;;1.61;94.51;100197.34;1977863;79;159582;-76
2021/12/12 02:21:25;;;;;;;5.31;1.87;;;;;;;1.59;94.60;100198.47;1982703;81;21116;-76
2021/12/12 02:40:18;;;;;;;6.43;1.94;;;;;;;1.50;95.04;100199.66;1973640;71;20469;-77
2021/12/12 02:44:07;;;;;;;5.10;1.98;;;;;;;1.50;95.12;100200.69;1967112;82;20932;-75
2021/12/12 02:51:11;;;;;;;6.24;2.41;;;;;;;1.51;95.19;100200.38;1966662;82;20494;-75
2021/12/12 02:54:40;;;;;;;7.18;1.99;;;;;;;1.52;95.22;100199.56;1967355;82;20542;-76
2021/12/12 02:58:24;;;;;;;5.22;1.86;;;;;;;1.54;95.31;100201.09;1961773;82;20352;-76
2021/12/12 03:10:29;;;;;;;4.18;1.48;;;;;;;1.63;94.94;100204.88;1968154;82;20334;-76
2021/12/12 03:22:26;;;;;;;5.82;1.83;;;;;;;1.69;94.70;100201.69;1983670;81;20366;-75
2021/12/12 03:25:48;;;;;;;5.85;1.79;;;;;;;1.69;94.42;100200.06;1984887;81;20356;-75
2021/12/12 03:28:54;;;;;;;7.44;2.58;;;;;;;1.69;94.39;100199.94;1984374;81;21128;-76
2021/12/12 03:32:02;;;;;;;8.80;1.74;;;;;;;1.68;94.20;100199.00;1986719;78;23128;-76
2021/12/12 03:35:06;;;;;;;6.13;1.61;;;;;;;1.66;94.06;100198.00;1989591;81;20419;-76
2021/12/12 03:38:08;;;;;;;5.90;1.71;;;;;;;1.64;94.13;100198.09;1989793;81;20442;-75
2021/12/12 03:41:15;;;;;;;5.65;1.27;;;;;;;1.63;94.00;100198.44;1989839;81;21090;-76
2021/12/12 03:44:24;;;;;;;4.80;1.76;;;;;;;1.62;93.89;100199.59;1990009;81;20344;-75
2021/12/12 03:47:35;;;;;;;5.82;1.65;;;;;;;1.61;93.88;100202.47;1980693;79;20575;-75
2021/12/12 03:50:40;;;;;;;5.88;1.30;;;;;;;1.60;93.87;100204.28;1984718;81;20192;-75
2021/12/12 03:53:43;;;;;;;4.76;1.83;;;;;;;1.59;93.87;100206.44;1984797;81;20838;-75
2021/12/12 03:56:46;;;;;;;4.40;1.44;;;;;;;1.59;93.88;100205.69;1984917;81;20416;-76
2021/12/12 03:59:49;;;;;;;6.44;1.44;;;;;;;1.59;94.02;100206.00;1981122;81;20368;-76
2021/12/12 04:02:52;;;;;;;4.45;1.51;;;;;;;1.60;94.10;100208.47;1983190;79;21478;-76
2021/12/12 04:05:59;;;;;;;7.78;2.17;;;;;;;1.60;94.28;100210.63;1984912;81;20796;-75
2021/12/12 04:09:05;;;;;;;7.14;1.74;;;;;;;1.62;94.40;100211.53;1983716;82;20341;-76
2021/12/12 04:12:11;;;;;;;4.29;1.42;;;;;;;1.64;94.40;100209.88;1982988;81;20872;-76
2021/12/12 04:15:15;;;;;;;5.70;1.50;;;;;;;1.66;94.25;100210.75;1982551;81;20375;-75
2021/12/12 04:18:23;;;;;;;6.96;1.95;;;;;;;1.69;94.12;100212.25;1983020;82;20393;-76
2021/12/12 04:21:28;;;;;;;5.90;1.61;;;;;;;1.72;94.10;100214.41;1984133;81;20382;-76
2021/12/12 04:24:36;;;;;;;9.51;1.89;;;;;;;1.75;93.97;100214.56;1982933;81;20192;-76
2021/12/12 04:27:40;;;;;;;3.80;1.30;;;;;;;1.79;93.87;100213.22;1983572;81;20309;-76
2021/12/12 04:30:43;;;;;;;9.36;1.81;;;;;;;1.84;93.59;100215.09;1982099;80;22442;-75
2021/12/12 04:33:46;;;;;;;3.90;1.23;;;;;;;1.87;93.57;100215.41;1983811;81;20354;-75
2021/12/12 04:36:49;;;;;;;4.18;1.67;;;;;;;1.91;93.37;100215.97;1983282;81;20345;-75
2021/12/12 04:39:56;;;;;;;7.94;1.95;;;;;;;1.93;93.32;100213.16;1983480;82;20341;-75
2021/12/12 04:43:00;;;;;;;8.00;1.70;;;;;;;1.95;93.25;100212.00;1983020;82;21024;-75
2021/12/12 04:46:09;;;;;;;2.70;1.30;;;;;;;1.97;93.11;100212.63;1983832;79;25147;-75
2021/12/12 04:52:43;;;;;;;5.90;1.08;;;;;;;2.01;92.79;100213.34;1988132;81;20522;-76
2021/12/12 04:55:56;;;;;;;3.76;1.50;;;;;;;2.02;93.01;100211.72;1988939;81;20912;-75
2021/12/12 04:59:32;;;;;;;5.76;1.44;;;;;;;2.03;92.89;100211.16;1988166;81;20320;-76
2021/12/12 05:02:53;;;;;;;3.88;1.08;;;;;;;2.05;92.70;100211.81;1987217;79;21591;-76
2021/12/12 05:06:01;;;;;;;4.16;1.30;;;;;;;2.07;92.51;100211.19;1988446;81;20338;-76
2021/12/12 05:09:13;;;;;;;7.13;1.34;;;;;;;2.09;92.48;100213.53;1989262;81;20452;-75
2021/12/12 05:12:22;;;;;;;6.24;1.45;;;;;;;2.11;92.45;100213.75;1988924;81;20262;-76
2021/12/12 05:15:33;;;;;;;3.88;1.15;;;;;;;2.13;92.35;100212.72;1986928;79;20629;-75
2021/12/12 05:18:47;;;;;;;6.26;1.30;;;;;;;2.15;92.36;100212.94;1987989;81;21424;-76
2021/12/12 05:21:54;;;;;;;6.41;1.35;;;;;;;2.17;92.04;100213.50;1988412;81;20343;-75
2021/12/12 05:25:02;;;;;;;3.26;1.10;;;;;;;2.20;91.61;100213.50;1984483;81;20343;-76
2021/12/12 05:28:07;;;;;;;7.89;1.86;;;;;;;2.24;91.06;100214.63;1988592;81;20319;-76
2021/12/12 05:31:11;;;;;;;5.03;1.35;;;;;;;2.27;91.01;100218.28;1981237;79;26331;-75
2021/12/12 05:34:17;;;;;;;8.44;1.64;;;;;;;2.30;91.00;100221.31;1983580;82;20371;-75
2021/12/12 05:37:21;;;;;;;4.26;1.42;;;;;;;2.32;90.76;100225.47;1983491;82;20799;-76
2021/12/12 05:40:29;;;;;;;4.35;1.06;;;;;;;2.35;90.47;100229.03;1983544;81;20400;-75
2021/12/12 05:43:32;;;;;;;4.21;1.49;;;;;;;2.38;90.19;100232.22;1987660;81;20411;-76
2021/12/12 05:46:35;;;;;;;3.56;1.11;;;;;;;2.41;89.99;100233.69;1983495;79;23204;-76
2021/12/12 05:49:40;;;;;;;6.79;1.21;;;;;;;2.43;89.64;100233.47;1984210;81;20979;-76
2021/12/12 05:52:44;;;;;;;4.25;1.33;;;;;;;2.45;89.52;100235.00;1984426;81;20405;-75
2021/12/12 05:55:49;;;;;;;2.84;0.90;;;;;;;2.47;89.50;100237.22;1983993;81;20364;-76
2021/12/12 05:58:53;;;;;;;3.74;0.90;;;;;;;2.49;89.44;100238.00;1984427;81;20776;-76
2021/12/12 06:01:58;;;;;;;3.96;1.10;;;;;;;2.52;89.29;100239.25;1985142;79;20495;-76
2021/12/12 06:05:01;;;;;;;5.18;1.44;;;;;;;2.53;89.37;100242.34;1989162;81;20328;-76
2021/12/12 06:08:05;;;;;;;4.53;1.10;;;;;;;2.55;89.21;100243.81;1989173;81;20351;-76
2021/12/12 06:11:09;;;;;;;5.45;1.10;;;;;;;2.56;89.14;100246.59;1989417;81;20356;-76
2021/12/12 06:14:12;;;;;;;6.25;1.06;;;;;;;2.58;89.18;100248.78;1989112;81;20335;-76
2021/12/12 06:17:17;;;;;;;4.90;1.31;;;;;;;2.59;89.16;100252.59;1983804;79;21299;-76
2021/12/12 06:20:21;;;;;;;6.50;1.16;;;;;;;2.60;88.92;100256.66;1984385;81;20325;-76
2021/12/12 06:23:26;;;;;;;4.32;1.24;;;;;;;2.62;89.02;100261.25;1984193;82;20373;-76
2021/12/12 06:26:28;;;;;;;5.40;1.48;;;;;;;2.63;88.81;100265.84;1984083;82;20357;-76
2021/12/12 06:29:31;;;;;;;3.89;1.06;;;;;;;2.64;88.77;100267.19;1984134;81;20317;-76
2021/12/12 06:32:34;;;;;;;5.94;1.05;;;;;;;2.66;88.66;100268.91;1983411;80;20385;-76
2021/12/12 06:35:38;;;;;;;2.95;1.01;;;;;;;2.67;88.83;100271.78;1983455;81;20408;-76
2021/12/12 06:38:44;;;;;;;2.41;1.20;;;;;;;2.67;89.10;100275.66;1984093;82;20341;-76
2021/12/12 06:41:49;;;;;;;7.64;1.70;;;;;;;2.68;89.24;100278.41;1984366;81;20398;-76
2021/12/12 06:44:51;;;;;;;7.60;3.11;;;;;;;2.69;89.48;100280.69;1983476;81;20403;-76
2021/12/12 06:47:56;;;;;;;9.20;3.20;;;;;;;2.69;89.71;100281.91;1982114;79;21434;-76
2021/12/12 06:51:01;;;;;;;7.44;2.90;;;;;;;2.70;89.83;100283.09;1983833;81;21124;-76
2021/12/12 06:54:05;;;;;;;6.41;1.79;;;;;;;2.70;89.67;100282.69;1984531;81;20501;-76
2021/12/12 06:57:12;;;;;;;4.81;1.96;;;;;;;2.71;89.24;100283.69;1984590;81;20333;-76
2021/12/12 07:00:22;;;;;;;3.56;1.29;;;;;;;2.72;89.02;100286.81;1982861;81;20369;-76
2021/12/12 07:03:25;;;;;;;5.72;1.52;;;;;;;2.72;89.07;100289.44;1985109;81;21032;-76
2021/12/12 07:06:29;;;;;;;4.63;2.25;;;;;;;2.73;88.93;100290.97;1983764;81;20358;-76
2021/12/12 07:13:48;;;;;;;4.09;0.99;;;;;;;2.74;88.68;100295.88;1981739;81;20386;-76
2021/12/12 07:21:54;;;;;;;3.65;1.35;;;;;;;2.76;88.92;100301.97;1985966;81;20430;-76
2021/12/12 07:25:46;;;;;;;6.76;1.67;;;;;;;2.77;88.94;100303.59;1988416;81;20365;-77
2021/12/12 07:43:56;;;;;;;5.61;0.99;;;;;;;2.80;89.51;100314.69;1985759;71;20459;-76
2021/12/12 07:59:34;;;;;;;3.83;1.59;;;;;;;2.81;90.20;100320.63;2084427;71;20803;-77
2021/12/12 08:02:37;;;;;;;4.24;1.20;;;;;;;2.81;90.22;100322.97;1983178;79;24446;-77
2021/12/12 08:05:41;;;;;;;3.90;1.54;;;;;;;2.82;90.27;100322.56;1985677;81;20342;-76
2021/12/12 08:08:44;;;;;;;3.97;1.09;;;;;;;2.82;90.38;100321.19;1984953;81;20321;-77
2021/12/12 08:11:49;;;;;;;6.29;1.35;;;;;;;2.83;90.43;100320.06;1983282;81;20348;-76
2021/12/12 08:14:52;;;;;;;4.36;1.23;;;;;;;2.85;90.77;100319.81;1983326;81;20408;-77
2021/12/12 08:18:00;;;;;;;4.97;1.09;;;;;;;2.85;90.75;100318.59;1981808;82;23345;-76
2021/12/12 08:21:06;;;;;;;4.38;1.17;;;;;;;2.86;90.84;100317.47;1984339;82;20349;-77
2021/12/12 08:24:11;;;;;;;6.82;2.63;;;;;;;2.88;90.93;100316.56;1982219;81;20337;-77
2021/12/12 08:27:13;;;;;;;7.47;1.65;;;;;;;2.90;90.93;100317.41;1979599;81;20685;-76
2021/12/12 08:30:18;;;;;;;6.19;1.59;;;;;;;2.92;91.06;100319.69;1983357;81;20321;-80
2021/12/12 08:33:23;;;;;;;5.14;2.19;;;;;;;2.95;91.11;100322.00;1980227;82;20345;-77
2021/12/12 08:36:25;;;;;;;5.99;1.40;;;;;;;2.98;91.13;100326.28;1978784;82;20505;-76
2021/12/12 08:39:28;;;;;;;2.67;1.59;;;;;;;3.00;90.94;100329.34;1977407;82;20317;-77
2021/12/12 08:42:33;;;;;;;6.63;1.74;;;;;;;3.02;91.13;100331.41;1978810;82;20337;-76
2021/12/12 08:45:59;;;;;;;6.38;1.24;;;;;;;3.04;91.09;100334.16;1975153;82;20338;-77
2021/12/12 08:49:02;;;;;;;6.28;1.79;;;;;;;3.07;90.95;100339.88;1977343;82;20473;-76
2021/12/12 08:52:12;;;;;;;4.07;1.20;;;;;;;3.08;90.74;100343.81;1975863;82;20416;-76
2021/12/12 08:55:19;;;;;;;5.07;1.96;;;;;;;3.10;90.84;100347.34;1975369;82;20410;-77
2021/12/12 08:58:27;;;;;;;5.59;2.26;;;;;;;3.11;90.99;100349.38;1976667;82;20345;-77
2021/12/12 09:01:29;;;;;;;4.89;1.52;;;;;;;3.12;91.09;100352.91;1977051;79;22085;-76
2021/12/12 09:04:39;;;;;;;6.28;1.50;;;;;;;3.14;91.34;100356.41;1975188;82;20395;-77
2021/12/12 09:07:45;;;;;;;4.71;1.10;;;;;;;3.16;91.36;100360.91;1980930;82;20431;-77
2021/12/12 09:11:05;;;;;;;3.70;1.20;;;;;;;3.18;91.33;100363.66;1981026;82;20216;-76
2021/12/12 09:14:28;;;;;;;5.66;1.31;;;;;;;3.19;91.48;100365.31;1980264;82;20332;-76
2021/12/12 09:17:47;;;;;;;4.41;1.50;;;;;;;3.21;91.86;100367.53;1978994;79;21129;-76
2021/12/12 09:20:58;;;;;;;5.10;1.16;;;;;;;3.24;92.01;100368.41;1980136;82;20341;-76
2021/12/12 09:24:13;;;;;;;5.44;1.69;;;;;;;3.26;92.18;100369.34;1980349;82;20192;-76
2021/12/12 09:27:34;;;;;;;4.75;1.39;;;;;;;3.29;92.51;100369.50;1979827;82;21102;-76
2021/12/12 09:30:37;;;;;;;5.76;1.38;;;;;;;3.32;92.79;100369.69;1978314;79;22917;-75
2021/12/12 09:33:53;;;;;;;4.06;1.50;;;;;;;3.37;93.02;100370.72;1979612;82;21340;-75
2021/12/12 09:37:07;;;;;;;5.28;1.30;;;;;;;3.41;93.25;100369.06;1978741;82;20341;-75
2021/12/12 09:40:12;;;;;;;6.01;1.56;;;;;;;3.45;93.43;100369.47;1979652;82;20346;-75
2021/12/12 09:43:33;;;;;;;8.79;1.94;;;;;;;3.49;93.49;100369.94;1979334;82;20456;-75
2021/12/12 09:47:00;;;;;;;3.84;1.60;;;;;;;3.53;93.51;100369.22;1978049;80;21426;-75
2021/12/12 09:54:03;;;;;;;5.05;1.24;;;;;;;3.62;93.91;100369.03;1979356;82;20471;-75
2021/12/12 09:57:31;;;;;;;6.22;1.25;;;;;;;3.67;94.00;100366.47;1978812;82;20427;-75
2021/12/12 10:00:45;;;;;;;5.64;1.30;;;;;;;3.72;94.15;100363.13;1977734;79;22229;-76
2021/12/12 10:04:03;;;;;;;5.32;1.61;;;;;;;3.76;94.36;100360.72;1978644;82;20349;-76
2021/12/12 10:07:43;;;;;;;5.19;1.21;;;;;;;3.79;94.11;100358.94;1979116;82;20937;-76
2021/12/12 10:11:01;;;;;;;5.75;2.30;;;;;;;3.83;94.34;100356.75;1978615;82;20332;-76
2021/12/12 10:14:16;;;;;;;3.30;1.34;;;;;;;3.85;94.34;100353.41;1978962;82;20246;-76
2021/12/12 10:17:45;;;;;;;5.01;1.44;;;;;;;3.88;94.46;100349.31;1974447;79;25728;-76
2021/12/12 10:21:13;;;;;;;6.35;1.30;;;;;;;3.92;94.41;100344.56;1974816;82;20396;-76
2021/12/12 10:24:35;;;;;;;7.79;1.70;;;;;;;3.95;94.54;100340.28;1975025;82;20468;-76
2021/12/12 10:27:57;;;;;;;3.41;1.26;;;;;;;3.99;94.86;100336.84;1975218;82;20338;-76
2021/12/12 10:31:11;;;;;;;4.14;1.38;;;;;;;4.03;94.69;100335.28;1973954;82;22060;-76
2021/12/12 10:34:20;;;;;;;3.56;1.34;;;;;;;4.06;94.62;100333.34;1976138;82;20868;-76
2021/12/12 10:37:28;;;;;;;5.07;2.07;;;;;;;4.10;94.64;100332.38;1975509;82;20364;-76
2021/12/12 10:40:45;;;;;;;5.75;1.69;;;;;;;4.14;94.69;100332.84;1976346;82;20389;-76
2021/12/12 10:44:00;;;;;;;5.96;1.58;;;;;;;4.18;94.43;100332.69;1977736;82;20322;-76
2021/12/12 10:47:08;;;;;;;8.80;1.95;;;;;;;4.20;94.22;100334.75;1975630;79;21653;-76
2021/12/12 10:50:15;;;;;;;5.00;1.72;;;;;;;4.22;94.04;100334.88;1977258;82;20346;-76
2021/12/12 10:53:56;;;;;;;5.49;1.65;;;;;;;4.24;94.08;100334.72;1977104;82;20217;-76
2021/12/12 10:57:05;;;;;;;4.84;1.52;;;;;;;4.26;94.21;100332.59;1977836;82;20335;-76
2021/12/12 11:00:13;;;;;;;7.14;1.45;;;;;;;4.28;93.93;100333.63;1975912;82;20314;-76
2021/12/12 11:03:22;;;;;;;4.39;1.47;;;;;;;4.29;94.07;100333.81;1975500;80;21769;-76
2021/12/12 11:06:31;;;;;;;7.02;1.80;;;;;;;4.28;93.99;100331.78;1976855;82;20236;-77
2021/12/12 11:09:45;;;;;;;;;;;;;;;4.28;93.88;100332.56;1977376;82;20271;-76
2021/12/12 11:13:08;;;;;;;5.70;1.56;;;;;;;4.29;93.98;100332.19;1977854;82;20073;-76
2021/12/12 11:16:33;;;;;;;5.86;1.66;;;;;;;4.29;94.16;100331.75;1975630;79;21868;-77
2021/12/12 11:19:48;;;;;;;4.41;1.42;;;;;;;4.31;94.14;100330.78;1982945;81;20372;-77
2021/12/12 11:23:12;;;;;;;6.19;1.94;;;;;;;4.33;94.23;100327.94;1982527;81;20385;-76
2021/12/12 11:26:23;;;;;;;4.91;1.49;;;;;;;4.34;94.04;100327.81;1982780;81;20526;-76
2021/12/12 11:29:44;;;;;;;5.13;1.73;;;;;;;4.35;94.30;100326.91;1982443;82;20473;-77
2021/12/12 11:32:50;;;;;;;5.22;2.20;;;;;;;4.37;94.38;100322.50;1976424;79;24010;-77
2021/12/12 11:35:55;;;;;;;2.84;1.44;;;;;;;4.40;94.28;100318.59;1982841;81;20345;-76
2021/12/12 11:39:38;;;;;;;7.84;2.10;;;;;;;4.44;94.37;100315.44;1982998;81;20337;-76
2021/12/12 11:43:10;;;;;;;6.56;1.31;;;;;;;4.47;94.27;100316.25;1968323;82;21413;-77
2021/12/12 11:46:20;;;;;;;8.15;2.01;;;;;;;4.50;94.21;100312.16;1978789;80;26349;-77
2021/12/12 11:50:14;;;;;;;5.21;1.40;;;;;;;4.54;94.23;100310.84;1982032;81;20402;-76
2021/12/12 11:53:28;;;;;;;4.46;1.48;;;;;;;4.57;94.08;100307.97;1973897;81;20451;-77
2021/12/12 11:56:45;;;;;;;5.95;1.50;;;;;;;4.59;94.14;100307.28;1984793;81;20412;-76
2021/12/12 12:00:05;;;;;;;5.55;1.79;;;;;;;4.61;94.33;100307.16;1981674;81;20348;-76
2021/12/12 12:03:27;;;;;;;6.24;2.54;;;;;;;4.64;94.33;100305.53;1972087;79;24714;-76
2021/12/12 12:06:40;;;;;;;4.13;1.10;;;;;;;4.67;94.37;100303.25;1970984;82;20425;-76
2021/12/12 12:09:49;;;;;;;7.85;1.76;;;;;;;4.70;94.28;100301.97;1971489;82;20362;-76
2021/12/12 12:13:11;;;;;;;;;;;;;;;4.72;94.23;100300.78;1970845;82;21124;-76
2021/12/12 12:16:39;;;;;;;4.79;1.41;;;;;;;4.75;94.47;100298.41;1970106;79;20977;-76
2021/12/12 12:19:59;;;;;;;5.75;2.10;;;;;;;4.77;94.17;100296.09;1974471;82;20669;-76
2021/12/12 12:23:16;;;;;;;5.59;1.92;;;;;;;4.79;94.06;100295.22;1974691;82;20334;-76
2021/12/12 12:29:43;;;;;;;10.48;2.21;;;;;;;4.81;93.86;100293.31;1980388;81;20768;-76
2021/12/12 12:33:37;;;;;;;6.64;1.89;;;;;;;4.82;93.78;100294.91;1978705;79;22225;-76
2021/12/12 12:37:17;;;;;;;4.85;1.98;;;;;;;4.83;93.92;100294.13;1973057;81;20341;-77
2021/12/12 12:40:58;;;;;;;3.94;1.59;;;;;;;4.85;93.96;100293.66;1979661;82;20321;-76
2021/12/12 12:44:38;;;;;;;6.63;1.75;;;;;;;4.87;93.85;100293.31;1980406;81;20455;-76
2021/12/12 12:47:40;;;;;;;5.05;1.48;;;;;;;4.89;93.77;100293.69;1979347;81;20982;-76
2021/12/12 12:51:15;;;;;;;4.90;1.56;;;;;;;4.90;93.91;100291.75;1980836;82;20388;-76
2021/12/12 12:54:30;;;;;;;8.80;2.19;;;;;;;4.92;93.81;100289.59;1980847;82;20357;-78
2021/12/12 12:57:41;;;;;;;7.36;1.91;;;;;;;4.92;93.72;100288.97;1977283;82;20378;-76
2021/12/12 13:00:47;;;;;;;7.91;2.08;;;;;;;4.93;93.76;100287.97;1978763;79;21932;-76
2021/12/12 13:04:02;;;;;;;5.18;2.06;;;;;;;4.94;93.57;100286.34;1980786;81;20952;-76
2021/12/12 13:07:24;;;;;;;5.82;2.35;;;;;;;4.95;93.62;100285.50;1980247;82;20404;-75
2021/12/12 13:10:30;;;;;;;6.49;1.96;;;;;;;4.94;93.40;100287.97;1979272;82;20382;-76
2021/12/12 13:13:46;;;;;;;9.23;1.91;;;;;;;4.95;93.39;100288.72;1979797;82;20349;-76
2021/12/12 13:17:01;;;;;;;8.41;1.99;;;;;;;4.95;93.28;100290.16;1980337;79;20421;-76
2021/12/12 13:20:16;;;;;;;4.51;2.10;;;;;;;4.96;93.33;100290.06;1980129;82;20486;-76
2021/12/12 13:23:56;;;;;;;3.79;2.36;;;;;;;4.98;93.33;100290.31;1981022;82;20364;-77
2021/12/12 13:27:16;;;;;;;3.49;2.00;;;;;;;5.00;93.17;100289.72;1980227;82;20329;-76
2021/12/12 13:30:40;;;;;;;4.46;1.99;;;;;;;5.01;93.11;100288.66;1982862;81;20372;-76
2021/12/12 13:33:46;;;;;;;7.14;2.19;;;;;;;5.03;93.19;100287.72;1981903;81;20329;-76
2021/12/12 13:37:11;;;;;;;3.95;1.66;;;;;;;5.05;93.16;100288.97;1981153;82;20420;-77
2021/12/12 13:40:32;;;;;;;7.56;2.11;;;;;;;5.08;93.20;100289.22;1980340;81;20309;-76
2021/12/12 13:43:58;;;;;;;9.04;2.45;;;;;;;5.11;93.03;100290.59;1981067;81;20416;-77
2021/12/12 13:47:11;;;;;;;8.94;2.95;;;;;;;5.13;92.86;100290.72;1977909;79;49627;-76
2021/12/12 13:50:32;;;;;;;4.21;1.77;;;;;;;5.16;92.85;100293.16;1980943;82;20321;-76
2021/12/12 13:53:41;;;;;;;8.01;2.17;;;;;;;5.18;92.81;100296.06;1979887;82;20434;-76
2021/12/12 13:57:08;;;;;;;5.94;2.10;;;;;;;5.21;92.70;100296.97;1980184;82;21120;-77
2021/12/12 14:00:20;;;;;;;6.65;2.03;;;;;;;5.23;92.53;100299.50;1978813;82;20391;-76
2021/12/12 14:03:48;;;;;;;9.07;2.28;;;;;;;5.24;92.39;100301.31;1980956;81;23516;-76
2021/12/12 14:06:53;;;;;;;7.39;1.99;;;;;;;5.25;92.39;100303.66;1980430;81;20408;-77
2021/12/12 14:09:58;;;;;;;8.19;2.91;;;;;;;5.27;92.36;100305.19;1984912;81;20325;-76
2021/12/12 14:13:15;;;;;;;5.31;2.61;;;;;;;5.27;92.40;100307.97;1981731;81;20451;-76
2021/12/12 14:16:20;;;;;;;10.65;2.97;;;;;;;5.28;92.50;100308.66;1979469;79;22657;-77
2021/12/12 14:19:39;;;;;;;5.36;2.44;;;;;;;5.28;92.45;100309.75;1981238;81;20333;-76
2021/12/12 14:22:42;;;;;;;7.19;2.35;;;;;;;5.28;92.29;100312.66;1981251;81;20365;-76
2021/12/12 14:30:48;;;;;;;8.10;2.20;;;;;;;5.27;92.37;100314.22;1970857;71;20379;-76
2021/12/12 14:35:05;;;;;;;8.56;2.69;;;;;;;5.27;92.47;100316.31;1981194;71;21327;-76
2021/12/12 15:00:30;;;;;;;16.63;5.16;;;;;;;5.22;93.15;100324.94;1982704;81;20563;-76
2021/12/12 15:03:51;;;;;;;7.16;3.47;;;;;;;5.20;93.27;100326.31;1984044;81;20407;-76
2021/12/12 15:07:17;;;;;;;12.05;4.34;;;;;;;5.19;93.27;100329.97;1985017;81;20417;-76
2021/12/12 15:11:03;;;;;;;7.78;3.51;;;;;;;5.18;93.45;100330.53;1985474;81;20931;-76
2021/12/12 15:14:33;;;;;;;11.57;3.53;;;;;;;5.17;93.39;100329.72;1985145;81;20407;-76
2021/12/12 15:18:31;;;;;;;8.41;3.28;;;;;;;5.16;93.40;100328.72;1982551;79;84793;-76
2021/12/12 15:31:02;;;;;;;8.25;2.59;;;;;;;5.15;93.32;100319.91;1973237;71;20095;-76
2021/12/12 15:34:55;;;;;;;8.45;3.06;;;;;;;5.14;93.38;100317.72;1965220;82;20496;-76
2021/12/12 15:38:39;;;;;;;10.02;3.13;;;;;;;5.13;93.46;100321.03;1970304;82;20355;-75
2021/12/12 15:42:28;;;;;;;10.09;3.51;;;;;;;5.11;93.30;100324.06;1969661;82;20478;-75
2021/12/12 15:59:30;;;;;;;8.21;3.50;;;;;;;5.11;93.18;100340.63;1974924;82;20423;-76
2021/12/12 16:02:34;;;;;;;;;;;;;;;5.11;93.24;100343.16;1972998;79;48502;-76
2021/12/12 16:06:07;;;;;;;6.11;2.84;;;;;;;5.11;93.21;100346.25;1975041;82;20138;-76
2021/12/12 16:09:51;;;;;;;9.05;3.15;;;;;;;5.11;93.25;100347.97;1974668;82;20375;-76
2021/12/12 16:17:58;;;;;;;7.39;3.36;;;;;;;5.10;93.35;100353.13;1963060;82;904135;-76
2021/12/12 16:21:07;;;;;;;10.13;3.67;;;;;;;5.09;93.43;100355.00;1975085;82;20231;-76
2021/12/12 16:25:27;;;;;;;17.29;4.36;;;;;;;5.09;93.54;100354.91;1973823;82;20350;-75
2021/12/12 16:30:15;;;;;;;12.16;4.32;;;;;;;5.08;93.65;100354.69;1955952;82;20944;-76
2021/12/12 16:34:17;;;;;;;9.02;3.74;;;;;;;5.07;93.94;100352.78;1953044;81;47836;-75
2021/12/12 16:37:31;;;;;;;7.74;3.34;;;;;;;5.07;94.20;100355.41;1943868;83;20411;-76
2021/12/12 16:40:38;;;;;;;8.66;4.01;;;;;;;5.07;94.17;100356.56;1953657;83;20343;-76
2021/12/12 16:44:10;;;;;;;10.44;3.80;;;;;;;5.06;94.24;100358.06;1954024;83;20469;-76
2021/12/12 16:47:59;;;;;;;9.07;3.65;;;;;;;5.07;94.34;100359.31;1955144;79;54008;-76
2021/12/12 16:51:34;;;;;;;8.23;4.12;;;;;;;5.06;94.45;100360.00;1958740;82;20357;-76
2021/12/12 16:55:48;;;;;;;8.96;4.36;;;;;;;5.06;94.54;100359.69;1957808;82;20867;-76
2021/12/12 16:58:55;;;;;;;12.04;4.90;;;;;;;5.07;94.68;100359.78;1965342;82;20353;-75
2021/12/12 17:02:00;;;;;;;11.14;4.88;;;;;;;5.07;94.66;100362.84;1972629;79;50930;-76
2021/12/12 17:05:46;;;;;;;8.95;5.05;;;;;;;5.06;94.79;100365.94;1974809;82;20741;-76
2021/12/12 17:14:04;;;;;;;8.59;4.85;;;;;;;5.06;95.07;100368.69;1976930;71;20366;-76
2021/12/12 17:18:29;;;;;;;7.91;4.20;;;;;;;5.07;95.04;100369.78;1973367;82;21237;-76
2021/12/12 17:22:23;;;;;;;11.76;4.66;;;;;;;5.08;95.09;100371.84;1977296;81;20350;-76
2021/12/12 17:25:29;;;;;;;11.64;4.89;;;;;;;5.08;95.24;100372.97;1979721;82;20446;-76
2021/12/12 17:28:33;;;;;;;11.01;5.10;;;;;;;5.08;95.37;100372.47;1972131;82;20401;-76
2021/12/12 17:31:40;;;;;;;11.31;5.10;;;;;;;5.08;95.30;100373.22;1977734;79;54842;-76
2021/12/12 17:34:53;;;;;;;17.17;7.32;;;;;;;5.08;95.29;100372.75;1979240;82;20344;-76
2021/12/12 17:37:59;;;;;;;8.19;4.78;;;;;;;5.08;95.46;100374.16;1980921;81;20332;-76
2021/12/12 17:46:10;;;;;;;9.00;4.50;;;;;;;5.09;95.54;100379.97;1980135;79;88322;-76
2021/12/12 17:49:18;;;;;;;13.94;5.81;;;;;;;5.09;95.49;100381.16;1980236;81;20220;-76
2021/12/12 17:52:44;;;;;;;12.06;5.59;;;;;;;5.10;95.52;100382.63;1979748;82;20435;-75
2021/12/12 17:56:23;;;;;;;9.05;5.22;;;;;;;5.10;95.46;100382.81;1979098;71;20342;-77
2021/12/12 17:59:48;;;;;;;10.06;5.40;;;;;;;5.11;95.49;100383.66;1976607;82;20864;-76
2021/12/12 18:03:13;;;;;;;6.28;4.50;;;;;;;5.11;95.57;100383.41;1973902;79;20362;-76
2021/12/12 18:06:23;;;;;;;9.39;4.75;;;;;;;5.12;95.48;100383.78;1976081;82;20393;-76
2021/12/12 18:09:29;;;;;;;8.80;4.57;;;;;;;5.12;95.49;100383.97;1976004;82;20826;-76
2021/12/12 18:12:33;;;;;;;9.41;4.90;;;;;;;5.12;95.53;100385.13;1976327;82;20437;-76
2021/12/12 18:15:52;;;;;;;9.13;4.41;;;;;;;5.13;95.48;100388.41;1974804;79;22043;-76
2021/12/12 18:19:03;;;;;;;10.13;4.66;;;;;;;5.13;95.40;100388.69;1977920;82;20545;-76
2021/12/12 18:22:11;;;;;;;9.77;4.93;;;;;;;5.14;95.40;100390.22;1976049;82;20474;-76
2021/12/12 18:25:19;;;;;;;6.86;4.30;;;;;;;5.14;95.35;100391.84;1977020;82;20920;-76
2021/12/12 18:28:28;;;;;;;9.20;4.80;;;;;;;5.14;95.31;100393.66;1977048;82;20428;-76
2021/12/12 18:31:52;;;;;;;5.93;4.47;;;;;;;5.14;95.35;100395.22;1974716;79;20205;-76
2021/12/12 18:35:20;;;;;;;8.69;4.81;;;;;;;5.15;95.43;100397.75;1977212;82;20204;-76
2021/12/12 18:38:33;;;;;;;7.94;4.90;;;;;;;5.15;95.48;100399.63;1976661;82;20890;-76